Kenova, West Virginia
Current Conditions -  °F | °C
As of 11:51 AM on Thursday 27 Nov 2014 (Local Time) from KHTS Reporting Station
Overcast Overcast  
Wind Chill: 27°   Ceiling: 2400
Heat Index: 34°   Visibility: 10mi
Dew Point: 23°   Wind: 9mph
Humidity: 64%   Direction: 310°NW
Pressure: 30.21"   Gusts: NA
Location:  38.4°N, 82.58°W
Report Text: KHTS 271651Z 31008KT 10SM BKN024 OVC031 01/M05 A3021 RMK AO2 SLP237 T00111050
Loading
Personal Weather Stations






























Interactive Weather Map New forecast layout! Learn more

10-Day Weather Forecast

Advertisements
Track Severe Weather on mobile